sensor_id;sensor_type;location;lat;lon;timestamp;pressure;altitude;pressure_sealevel;temperature;humidity
19795;BME280;10057;59.402;17.866;2023-02-22T00:00:22;101606.09;;;-1.98;70.84
19795;BME280;10057;59.402;17.866;2023-02-22T00:02:55;101612.81;;;-2.05;70.41
19795;BME280;10057;59.402;17.866;2023-02-22T00:05:26;101624.88;;;-2.08;71.10
19795;BME280;10057;59.402;17.866;2023-02-22T00:07:54;101631.72;;;-2.10;71.01
19795;BME280;10057;59.402;17.866;2023-02-22T00:10:24;101637.13;;;-2.04;71.51
19795;BME280;10057;59.402;17.866;2023-02-22T00:12:53;101629.53;;;-1.97;71.28
19795;BME280;10057;59.402;17.866;2023-02-22T00:15:23;101633.19;;;-1.88;71.78
19795;BME280;10057;59.402;17.866;2023-02-22T00:17:53;101635.88;;;-1.87;71.50
19795;BME280;10057;59.402;17.866;2023-02-22T00:20:20;101638.41;;;-1.88;71.25
19795;BME280;10057;59.402;17.866;2023-02-22T00:22:49;101631.34;;;-1.93;71.30
19795;BME280;10057;59.402;17.866;2023-02-22T00:25:21;101639.16;;;-1.93;71.53
19795;BME280;10057;59.402;17.866;2023-02-22T00:27:50;101646.13;;;-1.92;71.48
19795;BME280;10057;59.402;17.866;2023-02-22T00:30:23;101646.06;;;-1.95;70.71
19795;BME280;10057;59.402;17.866;2023-02-22T00:32:53;101642.53;;;-1.97;71.68
19795;BME280;10057;59.402;17.866;2023-02-22T00:35:24;101647.75;;;-1.95;71.33
19795;BME280;10057;59.402;17.866;2023-02-22T00:37:54;101640.84;;;-1.95;70.96
19795;BME280;10057;59.402;17.866;2023-02-22T00:40:24;101638.06;;;-2.01;70.83
19795;BME280;10057;59.402;17.866;2023-02-22T00:42:52;101647.59;;;-2.01;70.88
19795;BME280;10057;59.402;17.866;2023-02-22T00:45:22;101643.19;;;-2.04;70.45
19795;BME280;10057;59.402;17.866;2023-02-22T00:47:50;101638.00;;;-2.04;71.36
19795;BME280;10057;59.402;17.866;2023-02-22T00:50:17;101638.06;;;-2.01;71.00
19795;BME280;10057;59.402;17.866;2023-02-22T00:52:44;101646.78;;;-1.99;70.52
19795;BME280;10057;59.402;17.866;2023-02-22T00:55:17;101647.69;;;-1.98;70.68
19795;BME280;10057;59.402;17.866;2023-02-22T00:57:44;101653.78;;;-1.98;70.49
19795;BME280;10057;59.402;17.866;2023-02-22T01:00:21;101655.53;;;-1.97;71.30
19795;BME280;10057;59.402;17.866;2023-02-22T01:02:48;101653.03;;;-1.92;70.96
19795;BME280;10057;59.402;17.866;2023-02-22T01:05:22;101656.53;;;-1.92;70.58
19795;BME280;10057;59.402;17.866;2023-02-22T01:07:49;101659.22;;;-1.88;71.27
19795;BME280;10057;59.402;17.866;2023-02-22T01:10:21;101664.41;;;-1.88;70.80
19795;BME280;10057;59.402;17.866;2023-02-22T01:12:48;101666.19;;;-1.87;70.83
19795;BME280;10057;59.402;17.866;2023-02-22T01:15:18;101661.88;;;-1.87;71.10
19795;BME280;10057;59.402;17.866;2023-02-22T01:17:50;101666.19;;;-1.87;70.66
19795;BME280;10057;59.402;17.866;2023-02-22T01:20:18;101669.72;;;-1.85;70.64
19795;BME280;10057;59.402;17.866;2023-02-22T01:22:48;101668.03;;;-1.83;70.90
19795;BME280;10057;59.402;17.866;2023-02-22T01:25:18;101676.81;;;-1.80;70.81
19795;BME280;10057;59.402;17.866;2023-02-22T01:27:45;101672.56;;;-1.78;71.25
19795;BME280;10057;59.402;17.866;2023-02-22T01:30:13;101669.97;;;-1.76;71.35
19795;BME280;10057;59.402;17.866;2023-02-22T01:32:41;101676.06;;;-1.76;70.99
19795;BME280;10057;59.402;17.866;2023-02-22T01:35:12;101675.97;;;-1.79;70.72
19795;BME280;10057;59.402;17.866;2023-02-22T01:37:39;101680.25;;;-1.81;70.93
19795;BME280;10057;59.402;17.866;2023-02-22T01:40:08;101683.75;;;-1.80;70.69
19795;BME280;10057;59.402;17.866;2023-02-22T01:42:36;101688.00;;;-1.82;71.28
19795;BME280;10057;59.402;17.866;2023-02-22T01:48:07;101689.03;;;-1.77;70.57
19795;BME280;10057;59.402;17.866;2023-02-22T01:50:44;101691.63;;;-1.77;70.72
19795;BME280;10057;59.402;17.866;2023-02-22T01:53:15;101696.75;;;-1.80;70.96
19795;BME280;10057;59.402;17.866;2023-02-22T01:55:44;101686.28;;;-1.82;70.84
19795;BME280;10057;59.402;17.866;2023-02-22T01:58:12;101689.84;;;-1.78;70.82
19795;BME280;10057;59.402;17.866;2023-02-22T02:00:40;101685.41;;;-1.82;70.36
19795;BME280;10057;59.402;17.866;2023-02-22T02:03:12;101689.66;;;-1.86;70.80
19795;BME280;10057;59.402;17.866;2023-02-22T02:05:42;101687.09;;;-1.84;71.01
19795;BME280;10057;59.402;17.866;2023-02-22T02:08:33;101703.69;;;-1.81;70.66
19795;BME280;10057;59.402;17.866;2023-02-22T02:11:03;101700.13;;;-1.84;70.46
19795;BME280;10057;59.402;17.866;2023-02-22T02:13:34;101694.84;;;-1.86;70.38
19795;BME280;10057;59.402;17.866;2023-02-22T02:16:01;101698.31;;;-1.85;70.85
19795;BME280;10057;59.402;17.866;2023-02-22T02:18:28;101701.94;;;-1.80;70.94
19795;BME280;10057;59.402;17.866;2023-02-22T02:23:58;101698.41;;;-1.82;70.75
19795;BME280;10057;59.402;17.866;2023-02-22T02:42:59;101700.94;;;-1.85;70.86
19795;BME280;10057;59.402;17.866;2023-02-22T02:45:44;101700.16;;;-1.81;71.27
19795;BME280;10057;59.402;17.866;2023-02-22T02:48:14;101703.69;;;-1.81;71.06
19795;BME280;10057;59.402;17.866;2023-02-22T02:50:47;101701.06;;;-1.81;70.98
19795;BME280;10057;59.402;17.866;2023-02-22T02:53:20;101702.84;;;-1.80;70.78
19795;BME280;10057;59.402;17.866;2023-02-22T02:55:47;101710.66;;;-1.78;70.72
19795;BME280;10057;59.402;17.866;2023-02-22T02:58:20;101714.19;;;-1.78;70.68
19795;BME280;10057;59.402;17.866;2023-02-22T03:00:50;101713.19;;;-1.81;70.47
19795;BME280;10057;59.402;17.866;2023-02-22T03:06:15;101727.03;;;-1.82;71.10
19795;BME280;10057;59.402;17.866;2023-02-22T03:09:01;101726.25;;;-1.80;70.52
19795;BME280;10057;59.402;17.866;2023-02-22T03:11:40;101726.25;;;-1.80;71.11
19795;BME280;10057;59.402;17.866;2023-02-22T03:14:24;101726.16;;;-1.83;70.69
19795;BME280;10057;59.402;17.866;2023-02-22T03:17:13;101732.13;;;-1.87;70.68
19795;BME280;10057;59.402;17.866;2023-02-22T03:19:49;101740.41;;;-1.99;70.39
19795;BME280;10057;59.402;17.866;2023-02-22T03:27:32;101742.31;;;-1.95;70.56
19795;BME280;10057;59.402;17.866;2023-02-22T03:30:04;101744.84;;;-1.96;70.57
19795;BME280;10057;59.402;17.866;2023-02-22T03:32:36;101746.47;;;-2.00;70.94
19795;BME280;10057;59.402;17.866;2023-02-22T03:35:08;101752.59;;;-1.98;70.90
19795;BME280;10057;59.402;17.866;2023-02-22T03:37:40;101749.25;;;-1.94;71.02
19795;BME280;10057;59.402;17.866;2023-02-22T03:40:11;101751.78;;;-1.95;70.91
19795;BME280;10057;59.402;17.866;2023-02-22T03:42:47;101752.72;;;-1.95;70.84
19795;BME280;10057;59.402;17.866;2023-02-22T03:45:18;101754.47;;;-1.94;71.05
19795;BME280;10057;59.402;17.866;2023-02-22T03:47:48;101753.59;;;-1.94;71.08
19795;BME280;10057;59.402;17.866;2023-02-22T03:50:20;101750.97;;;-1.94;70.86
19795;BME280;10057;59.402;17.866;2023-02-22T03:52:48;101758.81;;;-1.93;70.75
19795;BME280;10057;59.402;17.866;2023-02-22T03:55:15;101764.91;;;-1.92;71.07
19795;BME280;10057;59.402;17.866;2023-02-22T03:57:49;101762.34;;;-1.91;70.87
19795;BME280;10057;59.402;17.866;2023-02-22T04:00:21;101765.06;;;-1.87;71.31
19795;BME280;10057;59.402;17.866;2023-02-22T04:02:48;101765.97;;;-1.85;71.19
19795;BME280;10057;59.402;17.866;2023-02-22T04:05:15;101771.22;;;-1.84;71.14
19795;BME280;10057;59.402;17.866;2023-02-22T04:07:42;101768.66;;;-1.82;70.62
19795;BME280;10057;59.402;17.866;2023-02-22T04:10:10;101776.56;;;-1.79;70.78
19795;BME280;10057;59.402;17.866;2023-02-22T04:12:37;101770.50;;;-1.78;70.94
19795;BME280;10057;59.402;17.866;2023-02-22T04:15:07;101767.88;;;-1.80;70.99
19795;BME280;10057;59.402;17.866;2023-02-22T04:17:34;101777.50;;;-1.77;70.84
19795;BME280;10057;59.402;17.866;2023-02-22T04:20:02;101782.69;;;-1.77;70.70
19795;BME280;10057;59.402;17.866;2023-02-22T04:22:29;101785.31;;;-1.77;71.44
19795;BME280;10057;59.402;17.866;2023-02-22T04:24:55;101792.22;;;-1.78;71.29
19795;BME280;10057;59.402;17.866;2023-02-22T04:27:22;101783.53;;;-1.78;70.84
19795;BME280;10057;59.402;17.866;2023-02-22T04:29:49;101791.31;;;-1.78;71.15
19795;BME280;10057;59.402;17.866;2023-02-22T04:32:16;101798.34;;;-1.76;71.37
19795;BME280;10057;59.402;17.866;2023-02-22T04:34:42;101795.75;;;-1.76;70.98
19795;BME280;10057;59.402;17.866;2023-02-22T04:37:09;101800.06;;;-1.76;71.03
19795;BME280;10057;59.402;17.866;2023-02-22T04:39:36;101794.03;;;-1.75;71.18
19795;BME280;10057;59.402;17.866;2023-02-22T04:42:03;101798.41;;;-1.74;71.51
19795;BME280;10057;59.402;17.866;2023-02-22T04:44:31;101805.38;;;-1.73;71.03
19795;BME280;10057;59.402;17.866;2023-02-22T04:46:58;101802.69;;;-1.75;70.95
19795;BME280;10057;59.402;17.866;2023-02-22T04:49:24;101802.69;;;-1.75;70.87
19795;BME280;10057;59.402;17.866;2023-02-22T04:51:51;101807.88;;;-1.76;71.34
19795;BME280;10057;59.402;17.866;2023-02-22T04:54:18;101811.34;;;-1.76;71.46
19795;BME280;10057;59.402;17.866;2023-02-22T04:56:45;101807.84;;;-1.78;71.35
19795;BME280;10057;59.402;17.866;2023-02-22T04:59:12;101807.03;;;-1.75;71.36
19795;BME280;10057;59.402;17.866;2023-02-22T05:01:39;101815.69;;;-1.76;71.18
19795;BME280;10057;59.402;17.866;2023-02-22T05:04:06;101813.13;;;-1.75;71.02
19795;BME280;10057;59.402;17.866;2023-02-22T05:06:33;101815.78;;;-1.73;71.16
19795;BME280;10057;59.402;17.866;2023-02-22T05:09:00;101822.72;;;-1.72;71.67
19795;BME280;10057;59.402;17.866;2023-02-22T05:11:26;101825.34;;;-1.72;71.45
19795;BME280;10057;59.402;17.866;2023-02-22T05:13:53;101827.06;;;-1.73;71.34
19795;BME280;10057;59.402;17.866;2023-02-22T05:16:20;101820.09;;;-1.74;71.21
19795;BME280;10057;59.402;17.866;2023-02-22T05:18:47;101817.50;;;-1.74;71.43
19795;BME280;10057;59.402;17.866;2023-02-22T05:21:13;101820.13;;;-1.72;71.73
19795;BME280;10057;59.402;17.866;2023-02-22T05:23:40;101820.19;;;-1.71;71.32
19795;BME280;10057;59.402;17.866;2023-02-22T05:26:07;101827.94;;;-1.72;71.64
19795;BME280;10057;59.402;17.866;2023-02-22T05:28:37;101824.47;;;-1.73;71.40
19795;BME280;10057;59.402;17.866;2023-02-22T05:31:03;101820.97;;;-1.73;71.48
19795;BME280;10057;59.402;17.866;2023-02-22T05:33:30;101821.81;;;-1.74;71.40
19795;BME280;10057;59.402;17.866;2023-02-22T05:35:57;101829.63;;;-1.74;71.61
19795;BME280;10057;59.402;17.866;2023-02-22T05:38:24;101831.28;;;-1.76;71.28
19795;BME280;10057;59.402;17.866;2023-02-22T05:40:50;101841.69;;;-1.76;71.27
19795;BME280;10057;59.402;17.866;2023-02-22T05:43:17;101843.31;;;-1.80;71.44
19795;BME280;10057;59.402;17.866;2023-02-22T05:45:44;101842.34;;;-1.83;71.14
19795;BME280;10057;59.402;17.866;2023-02-22T05:48:11;101845.72;;;-1.86;71.93
19795;BME280;10057;59.402;17.866;2023-02-22T05:50:38;101853.50;;;-1.87;71.66
19795;BME280;10057;59.402;17.866;2023-02-22T05:53:06;101850.91;;;-1.87;71.70
19795;BME280;10057;59.402;17.866;2023-02-22T05:55:32;101844.84;;;-1.86;71.61
19795;BME280;10057;59.402;17.866;2023-02-22T05:57:59;101852.75;;;-1.83;72.03
19795;BME280;10057;59.402;17.866;2023-02-22T06:00:29;101845.88;;;-1.81;71.72
19795;BME280;10057;59.402;17.866;2023-02-22T06:03:04;101849.41;;;-1.79;71.79
19795;BME280;10057;59.402;17.866;2023-02-22T06:05:31;101852.00;;;-1.79;71.87
19795;BME280;10057;59.402;17.866;2023-02-22T06:07:58;101852.84;;;-1.80;71.69
19795;BME280;10057;59.402;17.866;2023-02-22T06:10:26;101853.72;;;-1.80;71.95
19795;BME280;10057;59.402;17.866;2023-02-22T06:12:54;101857.22;;;-1.79;72.00
19795;BME280;10057;59.402;17.866;2023-02-22T06:15:22;101856.38;;;-1.78;72.41
19795;BME280;10057;59.402;17.866;2023-02-22T06:17:50;101853.72;;;-1.80;72.02
19795;BME280;10057;59.402;17.866;2023-02-22T06:20:20;101862.41;;;-1.79;72.00
19795;BME280;10057;59.402;17.866;2023-02-22T06:22:49;101861.56;;;-1.78;71.86
19795;BME280;10057;59.402;17.866;2023-02-22T06:25:19;101864.25;;;-1.77;71.65
19795;BME280;10057;59.402;17.866;2023-02-22T06:27:46;101871.97;;;-1.78;71.67
19795;BME280;10057;59.402;17.866;2023-02-22T06:30:15;101864.16;;;-1.78;71.82
19795;BME280;10057;59.402;17.866;2023-02-22T06:32:42;101864.13;;;-1.80;71.68
19795;BME280;10057;59.402;17.866;2023-02-22T06:35:09;101871.88;;;-1.81;71.62
19795;BME280;10057;59.402;17.866;2023-02-22T06:37:35;101870.97;;;-1.83;71.71
19795;BME280;10057;59.402;17.866;2023-02-22T06:40:02;101867.53;;;-1.82;71.95
19795;BME280;10057;59.402;17.866;2023-02-22T06:42:31;101872.72;;;-1.82;72.21
19795;BME280;10057;59.402;17.866;2023-02-22T06:44:58;101873.50;;;-1.85;72.07
19795;BME280;10057;59.402;17.866;2023-02-22T06:47:25;101874.41;;;-1.84;71.80
19795;BME280;10057;59.402;17.866;2023-02-22T06:49:55;101876.06;;;-1.86;72.10
19795;BME280;10057;59.402;17.866;2023-02-22T06:52:23;101874.34;;;-1.86;72.15
19795;BME280;10057;59.402;17.866;2023-02-22T06:54:50;101869.22;;;-1.84;71.79
19795;BME280;10057;59.402;17.866;2023-02-22T06:57:17;101870.91;;;-1.85;72.13
19795;BME280;10057;59.402;17.866;2023-02-22T06:59:44;101872.72;;;-1.82;72.17
19795;BME280;10057;59.402;17.866;2023-02-22T07:02:11;101877.94;;;-1.82;72.19
19795;BME280;10057;59.402;17.866;2023-02-22T07:04:38;101882.22;;;-1.84;72.48
19795;BME280;10057;59.402;17.866;2023-02-22T07:07:08;101883.88;;;-1.86;72.25
19795;BME280;10057;59.402;17.866;2023-02-22T07:09:35;101888.34;;;-1.82;72.34
19795;BME280;10057;59.402;17.866;2023-02-22T07:12:02;101882.38;;;-1.78;72.48
19795;BME280;10057;59.402;17.866;2023-02-22T07:14:29;101886.91;;;-1.73;71.93
19795;BME280;10057;59.402;17.866;2023-02-22T07:16:55;101889.63;;;-1.70;71.92
19795;BME280;10057;59.402;17.866;2023-02-22T07:19:22;101891.44;;;-1.67;72.53
19795;BME280;10057;59.402;17.866;2023-02-22T07:21:50;101887.09;;;-1.67;72.26
19795;BME280;10057;59.402;17.866;2023-02-22T07:24:22;101888.84;;;-1.67;72.42
19795;BME280;10057;59.402;17.866;2023-02-22T07:26:49;101892.44;;;-1.62;72.00
19795;BME280;10057;59.402;17.866;2023-02-22T07:29:15;101899.50;;;-1.58;71.94
19795;BME280;10057;59.402;17.866;2023-02-22T07:31:42;101903.16;;;-1.53;72.21
19795;BME280;10057;59.402;17.866;2023-02-22T07:34:08;101904.13;;;-1.49;72.44
19795;BME280;10057;59.402;17.866;2023-02-22T07:36:35;101910.31;;;-1.46;72.00
19795;BME280;10057;59.402;17.866;2023-02-22T07:39:02;101913.00;;;-1.42;72.21
19795;BME280;10057;59.402;17.866;2023-02-22T07:41:29;101913.88;;;-1.42;71.85
19795;BME280;10057;59.402;17.866;2023-02-22T07:43:55;101914.81;;;-1.40;72.64
19795;BME280;10057;59.402;17.866;2023-02-22T07:46:22;101915.81;;;-1.36;72.53
19795;BME280;10057;59.402;17.866;2023-02-22T07:48:49;101925.41;;;-1.34;72.44
19795;BME280;10057;59.402;17.866;2023-02-22T07:51:16;101924.63;;;-1.31;72.27
19795;BME280;10057;59.402;17.866;2023-02-22T07:53:43;101917.78;;;-1.28;72.00
19795;BME280;10057;59.402;17.866;2023-02-22T07:56:10;101926.63;;;-1.23;72.06
19795;BME280;10057;59.402;17.866;2023-02-22T07:58:37;101924.75;;;-1.27;71.57
19795;BME280;10057;59.402;17.866;2023-02-22T08:01:04;101926.13;;;-1.39;71.61
19795;BME280;10057;59.402;17.866;2023-02-22T08:03:32;101931.81;;;-1.51;71.71
19795;BME280;10057;59.402;17.866;2023-02-22T08:06:05;101922.22;;;-1.54;71.81
19795;BME280;10057;59.402;17.866;2023-02-22T08:08:32;101931.69;;;-1.56;72.26
19795;BME280;10057;59.402;17.866;2023-02-22T08:10:59;101928.00;;;-1.62;71.69
19795;BME280;10057;59.402;17.866;2023-02-22T08:13:26;101929.56;;;-1.68;71.60
19795;BME280;10057;59.402;17.866;2023-02-22T08:15:53;101944.25;;;-1.70;71.95
19795;BME280;10057;59.402;17.866;2023-02-22T08:18:21;101933.75;;;-1.73;71.81
19795;BME280;10057;59.402;17.866;2023-02-22T08:20:49;101939.91;;;-1.71;71.98
19795;BME280;10057;59.402;17.866;2023-02-22T08:23:20;101935.56;;;-1.70;71.53
19795;BME280;10057;59.402;17.866;2023-02-22T08:25:48;101945.09;;;-1.71;71.56
19795;BME280;10057;59.402;17.866;2023-02-22T08:28:17;101942.34;;;-1.75;71.46
19795;BME280;10057;59.402;17.866;2023-02-22T08:30:45;101941.47;;;-1.76;71.52
19795;BME280;10057;59.402;17.866;2023-02-22T08:33:13;101943.19;;;-1.76;71.70
19795;BME280;10057;59.402;17.866;2023-02-22T08:35:42;101940.78;;;-1.70;71.21
19795;BME280;10057;59.402;17.866;2023-02-22T08:38:24;101943.63;;;-1.62;71.51
19795;BME280;10057;59.402;17.866;2023-02-22T08:40:51;101939.50;;;-1.56;71.23
19795;BME280;10057;59.402;17.866;2023-02-22T08:43:19;101932.75;;;-1.49;71.61
19795;BME280;10057;59.402;17.866;2023-02-22T08:45:46;101946.00;;;-1.41;71.35
19795;BME280;10057;59.402;17.866;2023-02-22T08:48:14;101944.38;;;-1.38;70.95
19795;BME280;10057;59.402;17.866;2023-02-22T08:50:41;101941.03;;;-1.34;70.89
19795;BME280;10057;59.402;17.866;2023-02-22T08:53:10;101943.78;;;-1.29;70.70
19795;BME280;10057;59.402;17.866;2023-02-22T08:55:39;101944.78;;;-1.24;71.19
19795;BME280;10057;59.402;17.866;2023-02-22T08:58:07;101951.13;;;-1.16;71.38
19795;BME280;10057;59.402;17.866;2023-02-22T09:00:36;101952.22;;;-1.08;71.38
19795;BME280;10057;59.402;17.866;2023-02-22T09:03:07;101947.31;;;-0.99;71.10
19795;BME280;10057;59.402;17.866;2023-02-22T09:05:35;101946.66;;;-0.91;71.13
19795;BME280;10057;59.402;17.866;2023-02-22T09:08:02;101950.31;;;-0.85;70.79
19795;BME280;10057;59.402;17.866;2023-02-22T09:10:31;101953.13;;;-0.77;70.90
19795;BME280;10057;59.402;17.866;2023-02-22T09:12:58;101942.03;;;-0.70;70.56
19795;BME280;10057;59.402;17.866;2023-02-22T09:15:27;101945.78;;;-0.60;70.87
19795;BME280;10057;59.402;17.866;2023-02-22T09:17:55;101951.09;;;-0.56;70.55
19795;BME280;10057;59.402;17.866;2023-02-22T09:20:23;101948.50;;;-0.56;70.42
19795;BME280;10057;59.402;17.866;2023-02-22T09:22:50;101953.88;;;-0.51;70.13
19795;BME280;10057;59.402;17.866;2023-02-22T09:25:17;101957.47;;;-0.46;70.18
19795;BME280;10057;59.402;17.866;2023-02-22T09:27:49;101954.09;;;-0.42;70.02
19795;BME280;10057;59.402;17.866;2023-02-22T09:32:53;101954.97;;;-0.41;69.86
19795;BME280;10057;59.402;17.866;2023-02-22T09:35:21;101966.34;;;-0.39;69.80
19795;BME280;10057;59.402;17.866;2023-02-22T09:37:57;101961.09;;;-0.41;69.62
19795;BME280;10057;59.402;17.866;2023-02-22T09:40:27;101959.31;;;-0.42;69.92
19795;BME280;10057;59.402;17.866;2023-02-22T09:43:04;101965.34;;;-0.44;69.72
19795;BME280;10057;59.402;17.866;2023-02-22T09:46:25;101968.69;;;-0.49;69.67
19795;BME280;10057;59.402;17.866;2023-02-22T09:48:24;101968.59;;;-0.52;69.50
19795;BME280;10057;59.402;17.866;2023-02-22T09:50:52;101970.38;;;-0.51;69.84
19795;BME280;10057;59.402;17.866;2023-02-22T09:53:42;101968.69;;;-0.49;69.90
19795;BME280;10057;59.402;17.866;2023-02-22T09:56:13;101975.59;;;-0.51;69.62
19795;BME280;10057;59.402;17.866;2023-02-22T09:58:52;101968.59;;;-0.52;69.72
19795;BME280;10057;59.402;17.866;2023-02-22T10:01:25;101962.66;;;-0.47;69.96
19795;BME280;10057;59.402;17.866;2023-02-22T10:06:54;101966.38;;;-0.38;69.74
19795;BME280;10057;59.402;17.866;2023-02-22T10:09:26;101967.22;;;-0.39;69.65
19795;BME280;10057;59.402;17.866;2023-02-22T10:12:00;101969.75;;;-0.42;69.55
19795;BME280;10057;59.402;17.866;2023-02-22T10:17:35;101962.94;;;-0.37;69.70
19795;BME280;10057;59.402;17.866;2023-02-22T10:20:25;101962.13;;;-0.34;69.90
19795;BME280;10057;59.402;17.866;2023-02-22T10:25:43;101959.91;;;-0.20;69.41
19795;BME280;10057;59.402;17.866;2023-02-22T10:31:04;101962.91;;;-0.04;69.53
19795;BME280;10057;59.402;17.866;2023-02-22T10:33:41;101961.69;;;0.17;69.70
19795;BME280;10057;59.402;17.866;2023-02-22T10:36:17;101955.06;;;0.30;69.23
19795;BME280;10057;59.402;17.866;2023-02-22T10:38:57;101959.72;;;0.43;69.17
19795;BME280;10057;59.402;17.866;2023-02-22T10:43:54;101947.06;;;0.60;68.63
19795;BME280;10057;59.402;17.866;2023-02-22T10:46:21;101956.66;;;0.61;68.09
19795;BME280;10057;59.402;17.866;2023-02-22T10:48:51;101953.25;;;0.63;67.82
19795;BME280;10057;59.402;17.866;2023-02-22T10:51:20;101954.03;;;0.61;67.96
19795;BME280;10057;59.402;17.866;2023-02-22T10:53:57;101952.25;;;0.58;67.67
19795;BME280;10057;59.402;17.866;2023-02-22T10:56:25;101964.34;;;0.55;67.52
19795;BME280;10057;59.402;17.866;2023-02-22T11:04:16;101955.91;;;0.29;67.20
19795;BME280;10057;59.402;17.866;2023-02-22T11:07:05;101953.06;;;0.19;67.08
19795;BME280;10057;59.402;17.866;2023-02-22T11:09:46;101953.81;;;0.14;66.96
19795;BME280;10057;59.402;17.866;2023-02-22T11:12:18;101950.16;;;0.07;67.11
19795;BME280;10057;59.402;17.866;2023-02-22T11:14:45;101948.28;;;0.02;67.12
19795;BME280;10057;59.402;17.866;2023-02-22T11:17:18;101953.38;;;-0.03;66.98
19795;BME280;10057;59.402;17.866;2023-02-22T11:19:48;101964.56;;;-0.07;67.05
19795;BME280;10057;59.402;17.866;2023-02-22T11:22:28;101961.00;;;-0.11;66.97
19795;BME280;10057;59.402;17.866;2023-02-22T11:24:59;101960.91;;;-0.14;66.83
19795;BME280;10057;59.402;17.866;2023-02-22T11:27:34;101972.19;;;-0.16;66.77
19795;BME280;10057;59.402;17.866;2023-02-22T11:33:17;101972.19;;;-0.16;66.87
19795;BME280;10057;59.402;17.866;2023-02-22T11:35:53;101971.31;;;-0.17;66.66
19795;BME280;10057;59.402;17.866;2023-02-22T11:38:31;101973.06;;;-0.16;66.74
19795;BME280;10057;59.402;17.866;2023-02-22T11:41:13;101973.13;;;-0.13;66.59
19795;BME280;10057;59.402;17.866;2023-02-22T11:43:47;101973.22;;;-0.10;66.44
19795;BME280;10057;59.402;17.866;2023-02-22T11:46:26;101966.31;;;-0.08;66.63
19795;BME280;10057;59.402;17.866;2023-02-22T11:49:02;101975.16;;;-0.01;66.74
19795;BME280;10057;59.402;17.866;2023-02-22T11:57:24;101968.69;;;0.18;66.74
19795;BME280;10057;59.402;17.866;2023-02-22T12:02:48;101971.38;;;0.21;66.52
19795;BME280;10057;59.402;17.866;2023-02-22T12:11:01;101967.31;;;0.32;66.36
19795;BME280;10057;59.402;17.866;2023-02-22T12:19:29;101970.00;;;0.35;66.39
19795;BME280;10057;59.402;17.866;2023-02-22T12:22:06;101968.09;;;0.30;66.34
19795;BME280;10057;59.402;17.866;2023-02-22T12:24:41;101964.38;;;0.20;66.27
19795;BME280;10057;59.402;17.866;2023-02-22T12:27:17;101965.06;;;0.13;66.41
19795;BME280;10057;59.402;17.866;2023-02-22T12:29:51;101965.00;;;0.10;66.12
19795;BME280;10057;59.402;17.866;2023-02-22T12:32:30;101963.28;;;0.10;66.10
19795;BME280;10057;59.402;17.866;2023-02-22T12:35:13;101958.09;;;0.12;65.94
19795;BME280;10057;59.402;17.866;2023-02-22T12:38:05;101959.09;;;0.17;66.15
19795;BME280;10057;59.402;17.866;2023-02-22T12:40:50;101960.09;;;0.22;66.37
19795;BME280;10057;59.402;17.866;2023-02-22T12:43:27;101961.06;;;0.26;66.20
19795;BME280;10057;59.402;17.866;2023-02-22T12:46:09;101958.47;;;0.27;66.13
19795;BME280;10057;59.402;17.866;2023-02-22T12:49:02;101951.50;;;0.26;65.95
19795;BME280;10057;59.402;17.866;2023-02-22T12:54:27;101960.09;;;0.22;66.07
19795;BME280;10057;59.402;17.866;2023-02-22T12:57:08;101957.44;;;0.20;66.21
19795;BME280;10057;59.402;17.866;2023-02-22T13:02:55;101956.59;;;0.21;66.36
19795;BME280;10057;59.402;17.866;2023-02-22T13:05:22;101949.75;;;0.27;66.39
19795;BME280;10057;59.402;17.866;2023-02-22T13:08:26;101955.19;;;0.34;66.36
19795;BME280;10057;59.402;17.866;2023-02-22T13:11:12;101954.41;;;0.38;66.08
19795;BME280;10057;59.402;17.866;2023-02-22T13:16:57;101945.88;;;0.45;66.15
19795;BME280;10057;59.402;17.866;2023-02-22T13:19:40;101945.09;;;0.50;66.02
19795;BME280;10057;59.402;17.866;2023-02-22T13:22:21;101944.22;;;0.51;65.90
19795;BME280;10057;59.402;17.866;2023-02-22T13:27:42;101950.38;;;0.53;65.97
19795;BME280;10057;59.402;17.866;2023-02-22T13:30:22;101942.63;;;0.56;65.81
19795;BME280;10057;59.402;17.866;2023-02-22T13:36:36;101939.13;;;0.55;65.78
19795;BME280;10057;59.402;17.866;2023-02-22T13:42:24;101944.06;;;0.43;65.42
19795;BME280;10057;59.402;17.866;2023-02-22T13:45:01;101944.75;;;0.36;65.16
19795;BME280;10057;59.402;17.866;2023-02-22T13:47:46;101942.81;;;0.27;65.49
19795;BME280;10057;59.402;17.866;2023-02-22T13:52:50;101942.75;;;0.24;65.40
19795;BME280;10057;59.402;17.866;2023-02-22T13:55:25;101943.66;;;0.26;65.54
19795;BME280;10057;59.402;17.866;2023-02-22T13:58:05;101941.03;;;0.26;65.54
19795;BME280;10057;59.402;17.866;2023-02-22T14:00:40;101935.75;;;0.23;65.28
19795;BME280;10057;59.402;17.866;2023-02-22T14:13:12;101941.13;;;0.29;65.35
19795;BME280;10057;59.402;17.866;2023-02-22T14:18:48;101938.41;;;0.25;65.08
19795;BME280;10057;59.402;17.866;2023-02-22T14:21:17;101936.50;;;0.17;65.09
19795;BME280;10057;59.402;17.866;2023-02-22T14:23:55;101943.38;;;0.14;64.93
19795;BME280;10057;59.402;17.866;2023-02-22T14:26:31;101934.56;;;0.10;65.15
19795;BME280;10057;59.402;17.866;2023-02-22T14:34:20;101922.19;;;0.02;64.97
19795;BME280;10057;59.402;17.866;2023-02-22T14:36:50;101924.78;;;0.00;64.82
19795;BME280;10057;59.402;17.866;2023-02-22T14:42:13;101926.38;;;-0.04;64.61
19795;BME280;10057;59.402;17.866;2023-02-22T14:47:23;101923.69;;;-0.08;64.89
19795;BME280;10057;59.402;17.866;2023-02-22T14:50:00;101923.59;;;-0.11;64.64
19795;BME280;10057;59.402;17.866;2023-02-22T14:52:31;101925.16;;;-0.18;64.58
19795;BME280;10057;59.402;17.866;2023-02-22T14:55:24;101923.16;;;-0.28;64.21
19795;BME280;10057;59.402;17.866;2023-02-22T14:58:12;101933.44;;;-0.34;64.55
19795;BME280;10057;59.402;17.866;2023-02-22T15:00:49;101923.84;;;-0.35;64.55
19795;BME280;10057;59.402;17.866;2023-02-22T15:05:47;101922.88;;;-0.39;64.49